createdAt,value
2019-04-16T00:00:02.060Z,49.27
2019-04-16T00:02:54.879Z,49.29
2019-04-16T00:05:30.101Z,49.58
2019-04-16T00:08:19.477Z,49.54
2019-04-16T00:10:52.184Z,49.55
2019-04-16T00:13:43.396Z,49.72
2019-04-16T00:16:15.153Z,50.22
2019-04-16T00:18:57.323Z,50.21
2019-04-16T00:21:46.183Z,50.23
2019-04-16T00:24:23.663Z,50.57
2019-04-16T00:26:59.131Z,50.49
2019-04-16T00:29:33.053Z,50.65
2019-04-16T00:32:26.203Z,50.77
2019-04-16T00:34:58.116Z,51.07
2019-04-16T00:37:29.887Z,51.11
2019-04-16T00:40:02.090Z,51.34
2019-04-16T00:42:35.271Z,51.38
2019-04-16T00:45:07.357Z,51.53
2019-04-16T00:47:39.156Z,51.61
2019-04-16T00:50:11.046Z,51.65
2019-04-16T00:52:42.942Z,51.73
2019-04-16T00:55:14.801Z,51.72
2019-04-16T00:57:48.619Z,51.85
2019-04-16T01:00:22.299Z,52.20
2019-04-16T01:02:54.193Z,52.06
2019-04-16T01:05:25.724Z,52.33
2019-04-16T01:07:57.262Z,52.57
2019-04-16T01:10:29.237Z,52.75
2019-04-16T01:13:01.062Z,52.72
2019-04-16T01:15:33.112Z,52.98
2019-04-16T01:18:07.818Z,52.85
2019-04-16T01:20:42.821Z,52.76
2019-04-16T01:23:17.592Z,52.92
2019-04-16T01:25:46.359Z,53.03
2019-04-16T01:28:20.765Z,53.24
2019-04-16T01:31:17.446Z,53.29
2019-04-16T01:34:03.266Z,53.52
2019-04-16T01:36:54.263Z,53.72
2019-04-16T01:39:28.027Z,53.62
2019-04-16T01:41:59.752Z,53.97
2019-04-16T01:44:31.564Z,54.19
2019-04-16T01:47:04.161Z,54.49
2019-04-16T01:49:39.386Z,54.23
2019-04-16T01:52:10.576Z,54.73
2019-04-16T01:54:42.761Z,54.45
2019-04-16T01:57:14.403Z,55.16
2019-04-16T01:59:46.247Z,54.87
2019-04-16T02:02:18.884Z,55.04
2019-04-16T02:04:52.118Z,55.08
2019-04-16T02:07:27.722Z,55.34
2019-04-16T02:09:57.326Z,55.08
2019-04-16T02:12:29.699Z,55.32
2019-04-16T02:15:01.568Z,55.71
2019-04-16T02:17:34.383Z,55.36
2019-04-16T02:20:07.581Z,55.52
2019-04-16T02:22:42.228Z,55.50
2019-04-16T02:25:19.028Z,55.87
2019-04-16T02:27:48.716Z,55.72
2019-04-16T02:30:20.366Z,55.94
2019-04-16T02:32:51.988Z,55.91
2019-04-16T02:35:24.917Z,56.20
2019-04-16T02:37:56.681Z,55.98
2019-04-16T02:40:28.572Z,56.29
2019-04-16T02:43:04.781Z,56.49
2019-04-16T02:45:33.825Z,56.38
2019-04-16T02:48:05.836Z,56.52
2019-04-16T02:51:05.472Z,56.61
2019-04-16T02:53:58.895Z,56.72
2019-04-16T02:56:51.614Z,56.61
2019-04-16T02:59:25.587Z,57.02
2019-04-16T03:02:24.345Z,56.90
2019-04-16T03:05:14.986Z,56.83
2019-04-16T03:07:47.113Z,57.15
2019-04-16T03:10:19.670Z,57.12
2019-04-16T03:12:52.937Z,57.47
2019-04-16T03:15:42.842Z,58.12
2019-04-16T03:18:16.225Z,58.21
2019-04-16T03:20:49.500Z,58.08
2019-04-16T03:23:21.141Z,58.21
2019-04-16T03:25:53.866Z,58.28
2019-04-16T03:28:27.183Z,58.17
2019-04-16T03:30:59.090Z,58.32
2019-04-16T03:33:30.697Z,58.48
2019-04-16T03:36:03.903Z,58.25
2019-04-16T03:38:37.356Z,58.59
2019-04-16T03:41:09.098Z,58.75
2019-04-16T03:43:41.014Z,58.90
2019-04-16T03:46:14.514Z,58.98
2019-04-16T03:48:46.190Z,58.84
2019-04-16T03:51:18.444Z,58.96
2019-04-16T03:53:50.492Z,59.12
2019-04-16T03:56:22.093Z,59.37
2019-04-16T03:58:55.097Z,59.37
2019-04-16T04:01:27.345Z,59.38
2019-04-16T04:03:59.256Z,60.13
2019-04-16T04:06:31.218Z,60.13
2019-04-16T04:09:03.265Z,60.29
2019-04-16T04:11:40.940Z,60.96
2019-04-16T04:14:10.907Z,60.88
2019-04-16T04:16:43.007Z,60.54
2019-04-16T04:19:15.972Z,60.42
2019-04-16T04:21:50.679Z,59.98
2019-04-16T04:24:22.113Z,59.82
2019-04-16T04:26:53.995Z,59.86
2019-04-16T04:29:28.964Z,59.82
2019-04-16T04:32:03.371Z,60.32
2019-04-16T04:34:35.071Z,60.06
2019-04-16T04:37:07.209Z,59.77
2019-04-16T04:39:43.682Z,59.39
2019-04-16T04:42:14.275Z,59.14
2019-04-16T04:44:47.141Z,59.17
2019-04-16T04:47:20.143Z,59.12
2019-04-16T04:49:51.858Z,58.79
2019-04-16T04:52:23.642Z,58.74
2019-04-16T04:54:55.476Z,58.43
2019-04-16T04:57:28.391Z,58.25
2019-04-16T05:00:05.649Z,58.03
2019-04-16T05:02:37.677Z,57.70
2019-04-16T05:05:43.765Z,58.47
2019-04-16T05:08:15.488Z,57.49
2019-04-16T05:10:58.319Z,57.05
2019-04-16T05:13:23.927Z,57.02
2019-04-16T05:15:54.250Z,57.00
2019-04-16T05:18:27.194Z,56.87
2019-04-16T05:20:59.115Z,56.70
2019-04-16T05:23:30.801Z,56.75
2019-04-16T05:26:04.815Z,56.38
2019-04-16T05:28:36.452Z,56.31
2019-04-16T05:31:08.321Z,55.90
2019-04-16T05:33:40.241Z,55.60
2019-04-16T05:36:14.175Z,55.18
2019-04-16T05:38:45.551Z,54.89
2019-04-16T05:41:21.282Z,54.92
2019-04-16T05:43:50.961Z,54.73
2019-04-16T05:46:22.617Z,54.73
2019-04-16T05:48:54.671Z,54.56
2019-04-16T05:51:28.521Z,54.63
2019-04-16T05:54:08.430Z,54.88
2019-04-16T05:56:44.454Z,54.48
2019-04-16T05:59:17.151Z,54.85
2019-04-16T06:01:57.382Z,55.09
2019-04-16T06:04:28.697Z,55.16
2019-04-16T06:07:03.701Z,55.61
2019-04-16T06:09:34.256Z,55.80
2019-04-16T06:12:08.929Z,55.39
2019-04-16T06:14:49.676Z,55.17
2019-04-16T06:17:39.695Z,54.49
2019-04-16T06:20:36.662Z,53.94
2019-04-16T06:23:26.078Z,52.74
2019-04-16T06:26:17.629Z,52.50
2019-04-16T06:29:08.323Z,52.46
2019-04-16T06:31:56.475Z,52.71
2019-04-16T06:34:34.346Z,52.32
2019-04-16T06:37:21.598Z,51.09
2019-04-16T06:40:22.269Z,51.41
2019-04-16T06:43:03.803Z,51.84
2019-04-16T06:45:47.776Z,51.58
2019-04-16T06:48:29.055Z,52.08
2019-04-16T06:51:20.218Z,50.62
2019-04-16T06:54:11.259Z,50.85
2019-04-16T06:57:17.435Z,51.49
2019-04-16T07:00:13.911Z,51.07
2019-04-16T07:03:02.132Z,50.39
2019-04-16T07:05:49.282Z,49.41
2019-04-16T07:08:38.185Z,49.15
2019-04-16T07:11:08.196Z,48.94
2019-04-16T07:13:42.288Z,48.75
2019-04-16T07:16:14.843Z,48.90
2019-04-16T07:18:46.516Z,48.31
2019-04-16T07:21:18.371Z,48.42
2019-04-16T07:23:56.850Z,47.59
2019-04-16T07:26:24.826Z,47.64
2019-04-16T07:29:02.744Z,47.36
2019-04-16T07:31:45.244Z,46.98
2019-04-16T07:34:40.066Z,46.36
2019-04-16T07:37:33.828Z,46.73
2019-04-16T07:40:24.127Z,46.45
2019-04-16T07:43:23.552Z,46.48
2019-04-16T07:46:17.288Z,45.85
2019-04-16T07:49:01.352Z,45.02
2019-04-16T07:51:50.765Z,45.16
2019-04-16T07:54:41.650Z,44.63
2019-04-16T07:57:13.397Z,43.47
2019-04-16T07:59:47.589Z,42.26
2019-04-16T08:02:21.518Z,42.48
2019-04-16T08:04:52.680Z,42.08
2019-04-16T08:07:24.262Z,40.40
2019-04-16T08:10:01.074Z,40.11
2019-04-16T08:12:30.998Z,39.39
2019-04-16T08:15:13.377Z,36.55
2019-04-16T08:17:37.645Z,35.72
2019-04-16T08:20:09.645Z,35.42
2019-04-16T08:22:41.289Z,35.91
2019-04-16T08:25:12.899Z,35.35
2019-04-16T08:27:47.145Z,35.44
2019-04-16T08:30:19.174Z,34.74
2019-04-16T08:32:51.967Z,33.14
2019-04-16T08:35:24.053Z,33.30
2019-04-16T08:37:57.946Z,34.26
2019-04-16T08:40:29.261Z,33.01
2019-04-16T08:43:00.953Z,34.31
2019-04-16T08:45:32.630Z,33.89
2019-04-16T08:48:05.038Z,32.15
2019-04-16T08:50:36.794Z,32.40
2019-04-16T08:53:13.288Z,31.01
2019-04-16T08:55:42.494Z,31.20
2019-04-16T08:58:15.128Z,31.49
2019-04-16T09:00:48.852Z,31.04
2019-04-16T09:03:21.561Z,30.86
2019-04-16T09:05:53.175Z,31.60
2019-04-16T09:08:33.456Z,31.31
2019-04-16T09:11:06.110Z,31.73
2019-04-16T09:13:44.449Z,31.93
2019-04-16T09:16:16.648Z,31.74
2019-04-16T09:19:12.997Z,32.58
2019-04-16T09:21:44.789Z,32.02
2019-04-16T09:24:41.422Z,32.84
2019-04-16T09:27:31.073Z,32.26
2019-04-16T09:30:22.197Z,31.37
2019-04-16T09:33:15.585Z,31.15
2019-04-16T09:36:15.242Z,31.48
2019-04-16T09:38:50.593Z,29.80
2019-04-16T09:41:35.162Z,30.95
2019-04-16T09:44:06.917Z,31.00
2019-04-16T09:46:53.842Z,30.40
2019-04-16T09:49:11.995Z,29.68
2019-04-16T09:51:44.065Z,30.47
2019-04-16T09:54:15.820Z,28.78
2019-04-16T09:56:47.592Z,30.19
2019-04-16T09:59:39.347Z,29.19
2019-04-16T10:02:32.299Z,29.12
2019-04-16T10:05:04.635Z,28.70
2019-04-16T10:07:39.871Z,30.32
2019-04-16T10:10:10.395Z,30.29
2019-04-16T10:12:43.035Z,30.37
2019-04-16T10:15:15.859Z,29.32
2019-04-16T10:17:50.266Z,29.98
2019-04-16T10:20:21.912Z,30.27
2019-04-16T10:22:54.632Z,29.75
2019-04-16T10:25:26.444Z,29.04
2019-04-16T10:28:01.946Z,28.67
2019-04-16T10:30:43.626Z,28.92
2019-04-16T10:33:15.352Z,28.94
2019-04-16T10:35:47.089Z,28.35
2019-04-16T10:38:44.135Z,28.20
2019-04-16T10:41:30.427Z,28.58
2019-04-16T10:44:24.314Z,28.70
2019-04-16T10:47:35.684Z,28.06
2019-04-16T10:50:36.330Z,28.62
2019-04-16T10:53:30.270Z,28.45
2019-04-16T10:56:22.134Z,27.18
2019-04-16T10:59:19.063Z,28.47
2019-04-16T11:02:16.607Z,28.85
2019-04-16T11:05:15.228Z,28.44
2019-04-16T11:07:47.570Z,28.08
2019-04-16T11:10:19.225Z,26.88
2019-04-16T11:12:52.063Z,26.50
2019-04-16T11:15:25.057Z,27.36
2019-04-16T11:17:57.110Z,27.89
2019-04-16T11:20:28.911Z,27.78
2019-04-16T11:23:00.839Z,27.22
2019-04-16T11:25:32.561Z,26.89
2019-04-16T11:28:06.783Z,26.89
2019-04-16T11:30:41.770Z,27.80
2019-04-16T11:33:13.515Z,27.03
2019-04-16T11:35:45.365Z,26.61
2019-04-16T11:38:17.884Z,26.09
2019-04-16T11:40:49.501Z,26.52
2019-04-16T11:43:23.014Z,26.62
2019-04-16T11:45:55.069Z,26.66
2019-04-16T11:48:26.864Z,27.14
2019-04-16T11:50:58.612Z,26.20
2019-04-16T11:53:30.334Z,26.33
2019-04-16T11:56:04.632Z,24.75
2019-04-16T11:58:47.383Z,24.32
2019-04-16T12:01:25.874Z,23.94
2019-04-16T12:04:31.411Z,22.98
2019-04-16T12:07:12.327Z,22.22
2019-04-16T12:10:06.075Z,20.90
2019-04-16T12:12:57.225Z,18.94
2019-04-16T12:15:50.190Z,18.75
2019-04-16T12:18:55.942Z,17.68
2019-04-16T12:21:49.524Z,17.96
2019-04-16T12:24:49.056Z,16.89
2019-04-16T12:27:38.345Z,15.56
2019-04-16T12:30:42.090Z,15.54
2019-04-16T12:33:22.894Z,15.70
2019-04-16T12:36:16.777Z,15.73
2019-04-16T12:39:06.390Z,15.60
2019-04-16T12:42:16.917Z,16.08
2019-04-16T12:44:54.810Z,16.17
2019-04-16T12:47:39.248Z,16.54
2019-04-16T12:50:34.233Z,17.05
2019-04-16T12:53:17.483Z,17.05
2019-04-16T12:56:23.547Z,16.89
2019-04-16T12:59:12.971Z,17.57
2019-04-16T13:02:16.383Z,17.89
2019-04-16T13:05:02.311Z,18.75
2019-04-16T13:07:47.131Z,18.23
2019-04-16T13:10:36.409Z,17.51
2019-04-16T13:13:29.893Z,17.67
2019-04-16T13:16:06.828Z,17.46
2019-04-16T13:18:56.338Z,17.37
2019-04-16T13:21:34.347Z,16.83
2019-04-16T13:24:11.745Z,18.04
2019-04-16T13:26:55.500Z,17.84
2019-04-16T13:29:29.732Z,17.76
2019-04-16T13:32:03.897Z,17.79
2019-04-16T13:34:35.784Z,17.99
2019-04-16T13:37:07.662Z,18.48
2019-04-16T13:40:00.226Z,17.91
2019-04-16T13:42:32.283Z,17.89
2019-04-16T13:45:32.024Z,17.29
2019-04-16T13:48:15.600Z,17.80
2019-04-16T13:50:43.022Z,17.30
2019-04-16T13:53:30.856Z,17.32
2019-04-16T13:56:21.471Z,17.10
2019-04-16T13:59:04.548Z,17.38
2019-04-16T14:01:45.061Z,17.52
2019-04-16T14:04:13.752Z,19.21
2019-04-16T14:06:46.345Z,19.21
2019-04-16T14:09:18.239Z,19.12
2019-04-16T14:11:51.323Z,19.20
2019-04-16T14:14:24.840Z,19.22
2019-04-16T14:16:56.982Z,18.50
2019-04-16T14:19:28.575Z,18.55
2019-04-16T14:22:01.755Z,18.90
2019-04-16T14:24:33.589Z,18.48
2019-04-16T14:27:06.044Z,17.54
2019-04-16T14:29:38.897Z,17.96
2019-04-16T14:32:12.225Z,17.04
2019-04-16T14:34:55.337Z,16.61
2019-04-16T14:37:27.076Z,16.58
2019-04-16T14:40:26.943Z,16.13
2019-04-16T14:42:59.325Z,16.05
2019-04-16T14:45:59.329Z,15.80
2019-04-16T14:48:30.278Z,15.44
2019-04-16T14:51:02.969Z,15.05
2019-04-16T14:53:56.870Z,15.05
2019-04-16T14:56:40.695Z,15.02
2019-04-16T14:59:30.248Z,14.78
2019-04-16T15:02:16.539Z,16.38
2019-04-16T15:05:08.947Z,15.81
2019-04-16T15:08:04.667Z,15.69
2019-04-16T15:10:54.694Z,15.77
2019-04-16T15:13:42.322Z,16.08
2019-04-16T15:16:40.717Z,16.42
2019-04-16T15:19:20.714Z,16.28
2019-04-16T15:22:14.081Z,16.82
2019-04-16T15:24:50.951Z,16.76
2019-04-16T15:27:37.063Z,16.81
2019-04-16T15:30:31.619Z,17.02
2019-04-16T15:33:40.716Z,16.67
2019-04-16T15:36:19.749Z,16.62
2019-04-16T15:39:10.473Z,16.78
2019-04-16T15:42:16.346Z,17.02
2019-04-16T15:44:52.558Z,16.27
2019-04-16T15:47:42.948Z,17.02
2019-04-16T15:50:18.626Z,16.90
2019-04-16T15:52:59.006Z,16.43
2019-04-16T15:55:48.024Z,16.54
2019-04-16T15:58:26.787Z,16.41
2019-04-16T16:01:36.571Z,16.83
2019-04-16T16:04:11.207Z,17.34
2019-04-16T16:06:56.473Z,16.81
2019-04-16T16:09:41.842Z,16.56
2019-04-16T16:12:22.071Z,17.26
2019-04-16T16:14:51.488Z,16.82
2019-04-16T16:17:23.507Z,17.15
2019-04-16T16:19:55.491Z,17.09
2019-04-16T16:22:27.260Z,17.86
2019-04-16T16:24:59.302Z,17.38
2019-04-16T16:27:31.098Z,17.03
2019-04-16T16:30:03.619Z,17.07
2019-04-16T16:32:37.175Z,17.21
2019-04-16T16:35:09.420Z,16.88
2019-04-16T16:37:42.258Z,16.77
2019-04-16T16:40:15.205Z,17.34
2019-04-16T16:42:48.982Z,17.18
2019-04-16T16:45:22.805Z,17.36
2019-04-16T16:47:54.426Z,18.16
2019-04-16T16:50:26.238Z,18.12
2019-04-16T16:53:15.558Z,18.18
2019-04-16T16:55:50.734Z,18.13
2019-04-16T16:58:42.405Z,18.43
2019-04-16T17:01:42.336Z,18.66
2019-04-16T17:04:23.125Z,18.63
2019-04-16T17:06:56.372Z,18.82
2019-04-16T17:09:37.006Z,19.86
2019-04-16T17:12:08.685Z,20.94
2019-04-16T17:14:40.669Z,21.09
2019-04-16T17:17:15.164Z,21.66
2019-04-16T17:19:50.715Z,21.66
2019-04-16T17:22:21.334Z,21.81
2019-04-16T17:24:53.055Z,22.35
2019-04-16T17:27:24.832Z,22.45
2019-04-16T17:29:56.868Z,22.89
2019-04-16T17:32:29.170Z,23.54
2019-04-16T17:35:00.752Z,23.60
2019-04-16T17:37:33.831Z,23.91
2019-04-16T17:40:19.047Z,24.15
2019-04-16T17:42:53.299Z,24.24
2019-04-16T17:45:47.045Z,24.26
2019-04-16T17:48:36.684Z,24.61
2019-04-16T17:51:27.310Z,25.10
2019-04-16T17:54:06.693Z,25.41
2019-04-16T17:57:15.372Z,25.38
2019-04-16T18:00:00.478Z,25.69
2019-04-16T18:02:48.566Z,26.01
2019-04-16T18:05:48.669Z,26.28
2019-04-16T18:08:41.742Z,32.63
2019-04-16T18:11:20.996Z,38.90
2019-04-16T18:14:12.575Z,42.15
2019-04-16T18:16:54.128Z,43.99
2019-04-16T18:20:00.596Z,46.98
2019-04-16T18:22:41.948Z,48.60
2019-04-16T18:25:32.776Z,50.80
2019-04-16T18:28:09.483Z,51.82
2019-04-16T18:30:55.190Z,52.94
2019-04-16T18:33:49.064Z,53.51
2019-04-16T18:36:31.293Z,54.69
2019-04-16T18:39:21.891Z,55.34
2019-04-16T18:42:19.985Z,56.40
2019-04-16T18:45:11.671Z,56.74
2019-04-16T18:48:01.509Z,57.26
2019-04-16T18:50:27.948Z,58.08
2019-04-16T18:52:57.485Z,57.68
2019-04-16T18:55:29.216Z,58.10
2019-04-16T18:58:01.739Z,59.15
2019-04-16T19:00:45.529Z,59.18
2019-04-16T19:03:17.357Z,59.25
2019-04-16T19:05:49.691Z,60.02
2019-04-16T19:08:21.591Z,60.29
2019-04-16T19:10:53.431Z,60.38
2019-04-16T19:13:25.103Z,60.80
2019-04-16T19:15:57.038Z,61.96
2019-04-16T19:18:28.554Z,62.89
2019-04-16T19:21:00.741Z,63.49
2019-04-16T19:23:32.455Z,64.17
2019-04-16T19:26:04.815Z,65.33
2019-04-16T19:28:39.619Z,65.71
2019-04-16T19:31:12.192Z,66.72
2019-04-16T19:33:44.373Z,67.07
2019-04-16T19:36:16.326Z,67.58
2019-04-16T19:38:48.759Z,67.55
2019-04-16T19:41:24.396Z,68.12
2019-04-16T19:43:54.488Z,68.97
2019-04-16T19:46:26.908Z,69.55
2019-04-16T19:49:01.725Z,69.73
2019-04-16T19:51:33.711Z,70.90
2019-04-16T19:54:06.730Z,71.81
2019-04-16T19:56:38.672Z,73.08
2019-04-16T19:59:10.501Z,73.21
2019-04-16T20:01:42.458Z,73.21
2019-04-16T20:04:14.877Z,73.89
2019-04-16T20:06:46.834Z,74.40
2019-04-16T20:09:18.536Z,75.73
2019-04-16T20:11:54.690Z,76.88
2019-04-16T20:14:23.551Z,77.66
2019-04-16T20:16:55.317Z,77.98
2019-04-16T20:19:27.055Z,79.11
2019-04-16T20:21:59.648Z,80.04
2019-04-16T20:24:31.693Z,81.28
2019-04-16T20:27:06.718Z,81.93
2019-04-16T20:29:38.366Z,82.28
2019-04-16T20:32:10.209Z,82.50
2019-04-16T20:34:46.250Z,82.98
2019-04-16T20:37:17.951Z,82.89
2019-04-16T20:39:49.874Z,82.09
2019-04-16T20:42:21.714Z,82.40
2019-04-16T20:44:54.593Z,82.73
2019-04-16T20:47:26.970Z,82.88
2019-04-16T20:49:59.050Z,83.33
2019-04-16T20:52:30.933Z,83.49
2019-04-16T20:55:04.836Z,83.60
2019-04-16T20:57:39.081Z,83.32
2019-04-16T21:00:12.893Z,83.47
2019-04-16T21:02:44.978Z,83.66
2019-04-16T21:05:22.382Z,83.91
2019-04-16T21:07:51.388Z,84.07
2019-04-16T21:10:23.255Z,84.55
2019-04-16T21:12:56.943Z,84.71
2019-04-16T21:15:29.084Z,84.85
2019-04-16T21:18:00.914Z,84.92
2019-04-16T21:20:33.770Z,85.35
2019-04-16T21:23:05.963Z,85.42
2019-04-16T21:25:37.935Z,85.57
2019-04-16T21:28:26.713Z,85.77
2019-04-16T21:31:04.153Z,86.26
2019-04-16T21:33:55.003Z,86.36
2019-04-16T21:36:49.000Z,86.51
2019-04-16T21:39:26.285Z,86.90
2019-04-16T21:42:01.784Z,86.77
2019-04-16T21:44:31.665Z,86.89
2019-04-16T21:47:03.523Z,86.70
2019-04-16T21:49:38.980Z,86.28
2019-04-16T21:52:09.245Z,86.31
2019-04-16T21:54:41.375Z,86.22
2019-04-16T21:57:14.383Z,86.65
2019-04-16T21:59:46.382Z,86.38
2019-04-16T22:02:22.577Z,86.43
2019-04-16T22:04:55.251Z,86.58
2019-04-16T22:07:27.555Z,86.70
2019-04-16T22:09:59.756Z,86.80
2019-04-16T22:12:31.534Z,87.08
2019-04-16T22:15:03.294Z,87.84
2019-04-16T22:17:36.799Z,87.84
2019-04-16T22:20:10.150Z,87.72
2019-04-16T22:22:43.689Z,87.66
2019-04-16T22:25:16.353Z,87.72
2019-04-16T22:27:47.971Z,87.64
2019-04-16T22:30:20.215Z,87.53
2019-04-16T22:32:52.490Z,87.44
2019-04-16T22:35:24.478Z,87.50
2019-04-16T22:37:56.426Z,87.44
2019-04-16T22:40:55.005Z,87.36
2019-04-16T22:43:45.368Z,87.55
2019-04-16T22:46:24.051Z,87.65
2019-04-16T22:48:56.806Z,87.53
2019-04-16T22:51:28.586Z,87.57
2019-04-16T22:54:00.449Z,87.53
2019-04-16T22:56:45.950Z,87.47
2019-04-16T22:59:19.026Z,87.59
2019-04-16T23:01:53.221Z,87.46
2019-04-16T23:04:25.974Z,87.80
2019-04-16T23:06:57.835Z,87.70
2019-04-16T23:09:31.109Z,87.70
2019-04-16T23:12:03.528Z,87.72
2019-04-16T23:14:35.672Z,87.62
2019-04-16T23:17:13.431Z,87.46
2019-04-16T23:19:42.487Z,87.43
2019-04-16T23:22:15.385Z,87.19
2019-04-16T23:24:48.145Z,87.43
2019-04-16T23:27:20.571Z,87.34
2019-04-16T23:29:52.287Z,87.64
2019-04-16T23:32:27.666Z,87.86
2019-04-16T23:34:57.390Z,87.99
2019-04-16T23:37:31.656Z,87.89
2019-04-16T23:40:07.195Z,87.86
2019-04-16T23:42:40.305Z,88.09
2019-04-16T23:45:31.465Z,88.32
2019-04-16T23:48:31.323Z,88.47
2019-04-16T23:51:16.937Z,88.69
2019-04-16T23:53:52.320Z,88.87
2019-04-16T23:56:28.706Z,89.22
2019-04-16T23:59:04.630Z,89.41
